Time,TemperatureF,DewpointF,PressureIn,WindDirection,WindDirectionDegrees,WindSpeedMPH,WindSpeedGustMPH,Humidity,HourlyPrecipIn,Conditions,Clouds,dailyrainin,SolarRadiationWatts/m^2,SoftwareType,DateUTC
2013-01-25 00:00:00,28.0,22.0,30.20,WSW,245,2.0,5.0,78,0.00,,OVC075,0.00,0.00,VWS V14.01,2013-01-25 07:00:00,
2013-01-25 00:03:00,28.1,21.8,30.19,WSW,244,3.0,5.0,77,0.00,,CLR,0.00,0.00,VWS V14.01,2013-01-25 07:03:00,
2013-01-25 00:08:00,28.3,22.0,30.19,WSW,252,4.0,5.0,77,0.00,,CLR,0.00,0.00,VWS V14.01,2013-01-25 07:08:00,
2013-01-25 00:13:00,28.4,22.1,30.19,WSW,256,3.0,5.0,77,0.00,,CLR,0.00,0.00,VWS V14.01,2013-01-25 07:13:00,
2013-01-25 00:18:00,28.3,22.0,30.18,WSW,245,4.0,5.0,77,0.00,,CLR,0.00,0.00,VWS V14.01,2013-01-25 07:18:00,
2013-01-25 00:23:00,28.0,21.7,30.19,WSW,245,3.0,5.0,77,0.00,,CLR,0.00,0.00,VWS V14.01,2013-01-25 07:23:00,
2013-01-25 00:28:00,28.0,21.7,30.19,West,259,3.0,5.0,77,0.00,,CLR,0.00,0.00,VWS V14.01,2013-01-25 07:28:00,
2013-01-25 00:30:00,28.0,21.7,30.18,WSW,244,3.0,5.0,77,0.00,,OVC075,0.00,0.00,VWS V14.01,2013-01-25 07:30:00,
2013-01-25 00:33:00,27.9,21.6,30.18,WSW,250,4.0,4.0,77,0.00,,CLR,0.00,0.00,VWS V14.01,2013-01-25 07:33:00,
2013-01-25 00:38:00,27.6,21.4,30.18,WSW,247,2.0,4.0,77,0.00,,CLR,0.00,0.00,VWS V14.01,2013-01-25 07:38:00,
2013-01-25 00:43:00,27.2,21.0,30.18,WSW,246,0.0,4.0,77,0.00,,CLR,0.00,0.00,VWS V14.01,2013-01-25 07:43:00,
2013-01-25 00:48:00,26.9,21.0,30.18,WSW,238,2.0,4.0,78,0.00,,CLR,0.00,0.00,VWS V14.01,2013-01-25 07:48:00,
2013-01-25 00:53:00,26.7,20.8,30.18,WSW,238,2.0,4.0,78,0.00,,CLR,0.00,0.00,VWS V14.01,2013-01-25 07:53:00,
2013-01-25 00:58:00,26.6,20.7,30.18,SW,236,3.0,4.0,78,0.00,,CLR,0.00,0.00,VWS V14.01,2013-01-25 07:58:00,
2013-01-25 01:00:00,26.5,20.6,30.18,SW,234,2.0,4.0,78,0.00,,OVC075,0.00,0.00,VWS V14.01,2013-01-25 08:00:00,
2013-01-25 01:03:00,26.5,20.6,30.18,SW,232,3.0,3.0,78,0.00,,CLR,0.00,0.00,VWS V14.01,2013-01-25 08:03:00,
2013-01-25 01:08:00,26.5,20.6,30.18,SW,232,2.0,3.0,78,0.00,,CLR,0.00,0.00,VWS V14.01,2013-01-25 08:08:00,
2013-01-25 01:13:00,26.5,20.6,30.18,SW,232,2.0,3.0,78,0.00,,CLR,0.00,0.00,VWS V14.01,2013-01-25 08:13:00,
2013-01-25 01:18:00,26.4,20.5,30.18,SW,232,0.0,3.0,78,0.00,,CLR,0.00,0.00,VWS V14.01,2013-01-25 08:18:00,
2013-01-25 01:23:00,26.3,20.7,30.18,SW,234,1.0,3.0,79,0.00,,CLR,0.00,0.00,VWS V14.01,2013-01-25 08:23:00,
2013-01-25 01:28:00,26.4,20.8,30.18,SW,236,2.0,3.0,79,0.00,,CLR,0.00,0.00,VWS V14.01,2013-01-25 08:28:00,
2013-01-25 01:30:00,26.5,20.9,30.18,SW,234,2.0,3.0,79,0.00,,OVC075,0.00,0.00,VWS V14.01,2013-01-25 08:30:00,
2013-01-25 01:33:00,26.6,20.7,30.18,SW,234,3.0,3.0,78,0.00,,CLR,0.00,0.00,VWS V14.01,2013-01-25 08:33:00,
2013-01-25 01:38:00,26.5,20.6,30.19,SW,232,2.0,3.0,78,0.00,,CLR,0.00,0.00,VWS V14.01,2013-01-25 08:38:00,
2013-01-25 01:43:00,26.4,20.5,30.19,SW,232,2.0,3.0,78,0.00,,CLR,0.00,0.00,VWS V14.01,2013-01-25 08:43:00,
2013-01-25 01:48:00,26.3,20.4,30.19,SW,234,1.0,3.0,78,0.00,,CLR,0.00,0.00,VWS V14.01,2013-01-25 08:48:00,
2013-01-25 01:53:00,26.4,20.5,30.19,WSW,248,2.0,3.0,78,0.00,,CLR,0.00,0.00,VWS V14.01,2013-01-25 08:53:00,
2013-01-25 01:58:00,26.5,20.6,30.19,WSW,249,1.0,3.0,78,0.00,,CLR,0.00,0.00,VWS V14.01,2013-01-25 08:58:00,
2013-01-25 02:00:00,26.4,20.5,30.19,WSW,249,2.0,3.0,78,0.00,,OVC075,0.00,0.00,VWS V14.01,2013-01-25 09:00:00,
2013-01-25 02:03:00,26.2,20.3,30.20,WSW,248,1.0,3.0,78,0.00,,CLR,0.00,0.00,VWS V14.01,2013-01-25 09:03:00,
2013-01-25 02:08:00,25.8,19.9,30.20,WSW,240,1.0,3.0,78,0.00,,CLR,0.00,0.00,VWS V14.01,2013-01-25 09:08:00,
2013-01-25 02:13:00,25.7,20.1,30.20,WSW,240,0.0,3.0,79,0.00,,CLR,0.00,0.00,VWS V14.01,2013-01-25 09:13:00,
2013-01-25 02:19:00,25.7,20.1,30.20,WSW,240,3.0,3.0,79,0.00,,CLR,0.00,0.00,VWS V14.01,2013-01-25 09:19:00,
2013-01-25 02:24:00,25.6,20.0,30.20,WSW,240,2.0,3.0,79,0.00,,CLR,0.00,0.00,VWS V14.01,2013-01-25 09:24:00,
2013-01-25 02:29:00,25.6,20.0,30.20,WSW,240,2.0,3.0,79,0.00,,CLR,0.00,0.00,VWS V14.01,2013-01-25 09:29:00,
2013-01-25 02:30:00,25.6,20.0,30.20,WSW,240,2.0,3.0,79,0.00,,OVC075,0.00,0.00,VWS V14.01,2013-01-25 09:30:00,
2013-01-25 02:34:00,25.6,20.0,30.20,WSW,240,1.0,3.0,79,0.00,,CLR,0.00,0.00,VWS V14.01,2013-01-25 09:34:00,
2013-01-25 02:39:00,25.7,20.1,30.20,WSW,246,1.0,3.0,79,0.00,,CLR,0.00,0.00,VWS V14.01,2013-01-25 09:39:00,
2013-01-25 02:44:00,25.6,20.0,30.19,WSW,245,1.0,3.0,79,0.00,,CLR,0.00,0.00,VWS V14.01,2013-01-25 09:44:00,
2013-01-25 02:49:00,25.3,19.7,30.19,WSW,246,2.0,3.0,79,0.00,,CLR,0.00,0.00,VWS V14.01,2013-01-25 09:49:00,
2013-01-25 02:54:00,25.2,19.9,30.19,SW,234,2.0,3.0,80,0.00,,CLR,0.00,0.00,VWS V14.01,2013-01-25 09:54:00,
2013-01-25 02:59:00,25.3,20.0,30.19,SW,234,3.0,3.0,80,0.00,,CLR,0.00,0.00,VWS V14.01,2013-01-25 09:59:00,
2013-01-25 03:00:00,25.4,20.1,30.19,SW,235,3.0,3.0,80,0.00,,OVC075,0.00,0.00,VWS V14.01,2013-01-25 10:00:00,
2013-01-25 03:04:00,25.5,20.2,30.19,SW,236,1.0,3.0,80,0.00,,CLR,0.00,0.00,VWS V14.01,2013-01-25 10:04:00,
2013-01-25 03:09:00,25.5,20.2,30.20,WSW,241,1.0,3.0,80,0.00,,CLR,0.00,0.00,VWS V14.01,2013-01-25 10:09:00,
2013-01-25 03:14:00,25.5,20.2,30.19,WSW,249,2.0,3.0,80,0.00,,CLR,0.00,0.00,VWS V14.01,2013-01-25 10:14:00,
2013-01-25 03:19:00,25.6,20.3,30.19,WSW,253,1.0,3.0,80,0.00,,CLR,0.00,0.00,VWS V14.01,2013-01-25 10:19:00,
2013-01-25 03:24:00,25.7,20.4,30.19,WSW,258,2.0,3.0,80,0.00,,CLR,0.00,0.00,VWS V14.01,2013-01-25 10:24:00,
2013-01-25 03:29:00,25.6,20.0,30.19,WSW,258,2.0,3.0,79,0.00,,CLR,0.00,0.00,VWS V14.01,2013-01-25 10:29:00,
2013-01-25 03:30:00,25.6,20.0,30.19,WSW,257,1.0,3.0,79,0.00,,OVC075,0.00,0.00,VWS V14.01,2013-01-25 10:30:00,
2013-01-25 03:34:00,25.5,19.9,30.19,WSW,257,2.0,2.0,79,0.00,,CLR,0.00,0.00,VWS V14.01,2013-01-25 10:34:00,
2013-01-25 03:39:00,25.1,19.5,30.19,West,262,2.0,3.0,79,0.00,,CLR,0.00,0.00,VWS V14.01,2013-01-25 10:39:00,
2013-01-25 03:44:00,24.7,19.1,30.19,WSW,254,2.0,3.0,79,0.00,,CLR,0.00,0.00,VWS V14.01,2013-01-25 10:44:00,
2013-01-25 03:49:00,24.4,19.1,30.19,WSW,248,2.0,3.0,80,0.00,,CLR,0.00,0.00,VWS V14.01,2013-01-25 10:49:00,
2013-01-25 03:54:00,24.7,19.7,30.18,WSW,242,2.0,3.0,81,0.00,,CLR,0.00,0.00,VWS V14.01,2013-01-25 10:54:00,
2013-01-25 03:59:00,24.8,19.8,30.18,WSW,242,3.0,3.0,81,0.00,,CLR,0.00,0.00,VWS V14.01,2013-01-25 10:59:00,
2013-01-25 04:00:00,24.9,19.6,30.18,WSW,243,2.0,3.0,80,0.00,,OVC075,0.00,0.00,VWS V14.01,2013-01-25 11:00:00,
2013-01-25 04:04:00,24.9,19.6,30.16,WSW,242,2.0,2.0,80,0.00,,CLR,0.00,0.00,VWS V14.01,2013-01-25 11:04:00,
2013-01-25 04:09:00,25.0,19.7,30.15,WSW,245,1.0,3.0,80,0.00,,CLR,0.00,0.00,VWS V14.01,2013-01-25 11:09:00,
2013-01-25 04:14:00,24.9,19.6,30.16,WSW,237,3.0,3.0,80,0.00,,CLR,0.00,0.00,VWS V14.01,2013-01-25 11:14:00,
2013-01-25 04:19:00,25.5,20.5,30.15,SSW,209,4.0,5.0,81,0.00,,CLR,0.00,0.00,VWS V14.01,2013-01-25 11:19:00,
2013-01-25 04:24:00,26.6,21.3,30.15,SSW,211,4.0,5.0,80,0.00,,CLR,0.00,0.00,VWS V14.01,2013-01-25 11:24:00,
2013-01-25 04:29:00,27.0,21.4,30.15,SW,217,2.0,5.0,79,0.00,,CLR,0.00,0.00,VWS V14.01,2013-01-25 11:29:00,
2013-01-25 04:30:00,27.2,21.6,30.15,SW,218,3.0,5.0,79,0.00,,OVC075,0.00,0.00,VWS V14.01,2013-01-25 11:30:00,
2013-01-25 04:34:00,27.8,21.9,30.14,SW,229,2.0,3.0,78,0.00,,CLR,0.00,0.00,VWS V14.01,2013-01-25 11:34:00,
2013-01-25 04:39:00,28.1,21.8,30.14,West,275,1.0,3.0,77,0.00,,CLR,0.00,0.00,VWS V14.01,2013-01-25 11:39:00,
2013-01-25 04:44:00,27.4,20.5,30.14,West,269,1.0,3.0,75,0.00,,CLR,0.00,0.00,VWS V14.01,2013-01-25 11:44:00,
2013-01-25 04:49:00,26.2,19.7,30.15,West,266,1.0,3.0,76,0.00,,CLR,0.00,0.00,VWS V14.01,2013-01-25 11:49:00,
2013-01-25 04:54:00,25.0,18.5,30.15,West,267,2.0,3.0,76,0.00,,CLR,0.00,0.00,VWS V14.01,2013-01-25 11:54:00,
2013-01-25 04:59:00,23.8,18.0,30.15,WSW,254,1.0,3.0,78,0.00,,CLR,0.00,0.00,VWS V14.01,2013-01-25 11:59:00,
2013-01-25 05:00:00,23.7,18.1,30.15,WSW,250,2.0,3.0,79,0.00,,OVC075,0.00,0.00,VWS V14.01,2013-01-25 12:00:00,
2013-01-25 05:04:00,23.8,18.5,30.14,WSW,250,2.0,2.0,80,0.00,,CLR,0.00,0.00,VWS V14.01,2013-01-25 12:04:00,
2013-01-25 05:09:00,24.3,19.3,30.15,WSW,250,0.0,2.0,81,0.00,,CLR,0.00,0.00,VWS V14.01,2013-01-25 12:09:00,
2013-01-25 05:14:00,24.9,19.9,30.15,WSW,250,2.0,3.0,81,0.00,,CLR,0.00,0.00,VWS V14.01,2013-01-25 12:14:00,
2013-01-25 05:19:00,25.5,20.5,30.14,West,260,3.0,3.0,81,0.00,,CLR,0.00,0.00,VWS V14.01,2013-01-25 12:19:00,
2013-01-25 05:24:00,25.8,20.5,30.14,West,264,2.0,4.0,80,0.00,,CLR,0.00,0.00,VWS V14.01,2013-01-25 12:24:00,
2013-01-25 05:29:00,25.5,19.9,30.14,West,261,2.0,4.0,79,0.00,,CLR,0.00,0.00,VWS V14.01,2013-01-25 12:29:00,
2013-01-25 05:30:00,25.4,19.8,30.14,WSW,258,2.0,4.0,79,0.00,,OVC075,0.00,0.00,VWS V14.01,2013-01-25 12:30:00,
2013-01-25 05:34:00,25.2,19.9,30.15,WSW,258,2.0,3.0,80,0.00,,CLR,0.00,0.00,VWS V14.01,2013-01-25 12:34:00,
2013-01-25 05:39:00,25.0,19.7,30.16,WSW,257,3.0,4.0,80,0.00,,CLR,0.00,0.00,VWS V14.01,2013-01-25 12:39:00,
2013-01-25 05:44:00,24.8,19.5,30.15,WSW,254,3.0,4.0,80,0.00,,CLR,0.00,0.00,VWS V14.01,2013-01-25 12:44:00,
2013-01-25 05:49:00,24.8,19.5,30.15,WSW,252,4.0,4.0,80,0.00,,CLR,0.00,0.00,VWS V14.01,2013-01-25 12:49:00,
2013-01-25 05:54:00,24.8,19.5,30.15,WSW,250,2.0,4.0,80,0.00,,CLR,0.00,0.00,VWS V14.01,2013-01-25 12:54:00,
2013-01-25 05:59:00,24.6,19.3,30.15,WSW,250,2.0,4.0,80,0.00,,CLR,0.00,0.00,VWS V14.01,2013-01-25 12:59:00,
2013-01-25 06:00:00,24.6,19.3,30.15,WSW,249,2.0,4.0,80,0.00,,OVC075,0.00,0.00,VWS V14.01,2013-01-25 13:00:00,
2013-01-25 06:04:00,24.6,19.6,30.17,WSW,252,2.0,4.0,81,0.00,,CLR,0.00,0.00,VWS V14.01,2013-01-25 13:04:00,
2013-01-25 06:09:00,24.5,19.5,30.17,WSW,252,1.0,4.0,81,0.00,,CLR,0.00,0.00,VWS V14.01,2013-01-25 13:09:00,
2013-01-25 06:14:00,24.2,18.9,30.17,WSW,252,2.0,4.0,80,0.00,,CLR,0.00,0.00,VWS V14.01,2013-01-25 13:14:00,
2013-01-25 06:19:00,24.0,19.0,30.17,WSW,254,1.0,4.0,81,0.00,,CLR,0.00,0.00,VWS V14.01,2013-01-25 13:19:00,
2013-01-25 06:24:00,24.0,19.0,30.17,WSW,255,1.0,4.0,81,0.00,,CLR,0.00,0.00,VWS V14.01,2013-01-25 13:24:00,
2013-01-25 06:29:00,23.3,18.1,30.17,WSW,258,2.0,4.0,80,0.00,,CLR,0.00,0.00,VWS V14.01,2013-01-25 13:29:00,
2013-01-25 06:30:00,22.9,17.7,30.17,WSW,257,2.0,4.0,80,0.00,,OVC075,0.00,0.00,VWS V14.01,2013-01-25 13:30:00,
2013-01-25 06:34:00,22.1,16.9,30.17,West,263,2.0,2.0,80,0.00,,CLR,0.00,0.00,VWS V14.01,2013-01-25 13:34:00,
2013-01-25 06:39:00,21.4,16.5,30.18,West,261,2.0,3.0,81,0.00,,CLR,0.00,0.00,VWS V14.01,2013-01-25 13:39:00,
2013-01-25 06:44:00,21.3,16.7,30.18,West,265,2.0,3.0,82,0.00,,CLR,0.00,0.00,VWS V14.01,2013-01-25 13:44:00,
2013-01-25 06:49:00,21.6,17.2,30.17,West,261,2.0,4.0,83,0.00,,CLR,0.00,0.00,VWS V14.01,2013-01-25 13:49:00,
2013-01-25 06:54:00,22.5,18.4,30.17,WSW,253,3.0,4.0,84,0.00,,CLR,0.00,0.00,VWS V14.01,2013-01-25 13:54:00,
2013-01-25 06:59:00,23.6,19.5,30.16,West,259,2.0,4.0,84,0.00,,CLR,0.00,0.00,VWS V14.01,2013-01-25 13:59:00,
2013-01-25 07:00:00,23.8,19.7,30.16,WSW,258,2.0,4.0,84,0.00,,OVC075,0.00,0.00,VWS V14.01,2013-01-25 14:00:00,
2013-01-25 07:04:00,24.1,19.7,30.17,WSW,257,2.0,3.0,83,0.00,,CLR,0.00,0.00,VWS V14.01,2013-01-25 14:04:00,
2013-01-25 07:09:00,23.9,19.2,30.17,WSW,257,0.0,3.0,82,0.00,,CLR,0.00,0.00,VWS V14.01,2013-01-25 14:09:00,
2013-01-25 07:14:00,22.7,17.8,30.18,WSW,257,0.0,3.0,81,0.00,,CLR,0.00,5.00,VWS V14.01,2013-01-25 14:14:00,
2013-01-25 07:19:00,21.5,16.6,30.18,WSW,257,3.0,3.0,81,0.00,,CLR,0.00,7.00,VWS V14.01,2013-01-25 14:19:00,
2013-01-25 07:24:00,21.8,17.4,30.18,WSW,256,2.0,3.0,83,0.00,,CLR,0.00,14.00,VWS V14.01,2013-01-25 14:24:00,
2013-01-25 07:29:00,21.6,17.2,30.18,WSW,256,3.0,3.0,83,0.00,,CLR,0.00,23.00,VWS V14.01,2013-01-25 14:29:00,
2013-01-25 07:30:00,21.7,17.3,30.18,WSW,255,2.0,3.0,83,0.00,,OVC075,0.00,26.00,VWS V14.01,2013-01-25 14:30:00,
2013-01-25 07:34:00,22.0,17.9,30.19,WSW,254,1.0,2.0,84,0.00,,CLR,0.00,35.00,VWS V14.01,2013-01-25 14:34:00,
2013-01-25 07:39:00,22.5,18.4,30.19,WSW,254,0.0,2.0,84,0.00,,CLR,0.00,46.00,VWS V14.01,2013-01-25 14:39:00,
2013-01-25 07:44:00,23.1,19.0,30.18,WSW,254,0.0,2.0,84,0.00,,CLR,0.00,63.00,VWS V14.01,2013-01-25 14:44:00,
2013-01-25 07:49:00,23.9,19.8,30.18,WSW,254,0.0,2.0,84,0.00,,CLR,0.00,81.00,VWS V14.01,2013-01-25 14:49:00,
2013-01-25 07:54:00,24.5,20.4,30.18,WSW,254,1.0,2.0,84,0.00,,CLR,0.00,97.00,VWS V14.01,2013-01-25 14:54:00,
2013-01-25 07:59:00,25.0,20.6,30.18,WSW,254,2.0,2.0,83,0.00,,CLR,0.00,111.00,VWS V14.01,2013-01-25 14:59:00,
2013-01-25 08:00:00,25.1,20.7,30.18,WSW,254,2.0,3.0,83,0.00,,OVC075,0.00,116.00,VWS V14.01,2013-01-25 15:00:00,
2013-01-25 08:04:00,25.4,20.7,30.19,WSW,254,2.0,3.0,82,0.00,,CLR,0.00,91.00,VWS V14.01,2013-01-25 15:04:00,
2013-01-25 08:09:00,25.5,20.8,30.18,WSW,250,4.0,4.0,82,0.00,,CLR,0.00,105.00,VWS V14.01,2013-01-25 15:09:00,
2013-01-25 08:14:00,25.9,21.5,30.19,WSW,249,0.0,4.0,83,0.00,,CLR,0.00,116.00,VWS V14.01,2013-01-25 15:14:00,
2013-01-25 08:19:00,26.8,22.3,30.18,WSW,250,1.0,4.0,83,0.00,,CLR,0.00,121.00,VWS V14.01,2013-01-25 15:19:00,
2013-01-25 08:25:00,27.5,22.5,30.18,West,275,2.0,4.0,81,0.00,,CLR,0.00,167.00,VWS V14.01,2013-01-25 15:25:00,
2013-01-25 08:30:00,28.0,22.6,30.18,West,263,3.0,4.0,80,0.00,,CLR,0.00,156.00,VWS V14.01,2013-01-25 15:30:00,
2013-01-25 08:35:00,28.6,23.2,30.18,West,271,2.0,5.0,80,0.00,,CLR,0.00,200.00,VWS V14.01,2013-01-25 15:35:00,
2013-01-25 08:40:00,29.5,24.1,30.17,West,271,1.0,5.0,80,0.00,,CLR,0.00,202.00,VWS V14.01,2013-01-25 15:40:00,
2013-01-25 08:45:00,30.5,24.8,30.17,West,270,3.0,5.0,79,0.00,,CLR,0.00,197.00,VWS V14.01,2013-01-25 15:45:00,
2013-01-25 08:50:00,31.2,25.1,30.17,West,271,3.0,5.0,78,0.00,,CLR,0.00,174.00,VWS V14.01,2013-01-25 15:50:00,
2013-01-25 08:55:00,31.7,25.6,30.16,WNW,284,0.0,5.0,78,0.00,,CLR,0.00,221.00,VWS V14.01,2013-01-25 15:55:00,
2013-01-25 09:00:00,31.9,25.5,30.16,West,265,1.0,5.0,77,0.00,,CLR,0.00,181.00,VWS V14.01,2013-01-25 16:00:00,
2013-01-25 09:05:00,32.4,26.3,30.17,West,271,0.0,2.0,78,0.00,,SCT250,0.00,207.00,VWS V14.01,2013-01-25 16:05:00,
2013-01-25 09:10:00,33.2,26.8,30.17,West,266,1.0,2.0,77,0.00,,SCT250,0.00,209.00,VWS V14.01,2013-01-25 16:10:00,
2013-01-25 09:15:00,33.9,27.5,30.17,West,267,1.0,2.0,77,0.00,,SCT250,0.00,207.00,VWS V14.01,2013-01-25 16:15:00,
2013-01-25 09:20:00,34.8,28.0,30.16,West,269,1.0,3.0,76,0.00,,SCT250,0.00,160.00,VWS V14.01,2013-01-25 16:20:00,
2013-01-25 09:25:00,35.0,27.9,30.16,West,273,2.0,3.0,75,0.00,,SCT250,0.00,188.00,VWS V14.01,2013-01-25 16:25:00,
2013-01-25 09:30:00,36.5,29.0,30.15,West,265,0.0,3.0,74,0.00,,SCT250,0.00,234.00,VWS V14.01,2013-01-25 16:30:00,
2013-01-25 09:35:00,37.9,29.4,30.16,NW,304,2.0,4.0,71,0.00,,SCT250,0.00,253.00,VWS V14.01,2013-01-25 16:35:00,
2013-01-25 09:40:00,38.8,29.9,30.15,NW,306,0.0,4.0,70,0.00,,SCT250,0.00,239.00,VWS V14.01,2013-01-25 16:40:00,
2013-01-25 09:45:00,39.1,30.5,30.15,ENE,59,2.0,4.0,71,0.00,,SCT250,0.00,267.00,VWS V14.01,2013-01-25 16:45:00,
2013-01-25 09:50:00,39.7,30.0,30.15,NNE,32,2.0,4.0,68,0.00,,SCT250,0.00,265.00,VWS V14.01,2013-01-25 16:50:00,
2013-01-25 09:55:00,41.4,29.4,30.15,SW,217,4.0,5.0,62,0.00,,SCT250,0.00,345.00,VWS V14.01,2013-01-25 16:55:00,
2013-01-25 10:00:00,42.6,27.6,30.14,SSW,209,6.0,8.0,55,0.00,,SCT250,0.00,338.00,VWS V14.01,2013-01-25 17:00:00,
2013-01-25 10:05:00,43.1,27.1,30.15,SSE,165,9.0,9.0,53,0.00,,SCT250,0.00,299.00,VWS V14.01,2013-01-25 17:05:00,
2013-01-25 10:10:00,43.3,26.9,30.15,SSW,209,9.0,9.0,52,0.00,,SCT250,0.00,304.00,VWS V14.01,2013-01-25 17:10:00,
2013-01-25 10:15:00,43.3,27.3,30.15,South,178,4.0,12.0,53,0.00,,SCT250,0.00,253.00,VWS V14.01,2013-01-25 17:15:00,
2013-01-25 10:20:00,43.2,26.3,30.15,WSW,241,4.0,13.0,51,0.00,,SCT250,0.00,315.00,VWS V14.01,2013-01-25 17:20:00,
2013-01-25 10:25:00,43.4,26.5,30.15,South,176,4.0,13.0,51,0.00,,SCT250,0.00,313.00,VWS V14.01,2013-01-25 17:25:00,
2013-01-25 10:30:00,43.6,25.7,30.16,South,184,4.0,13.0,49,0.00,,SCT250,0.00,329.00,VWS V14.01,2013-01-25 17:30:00,
2013-01-25 10:35:00,43.9,26.5,30.15,South,171,7.0,7.0,50,0.00,,SCT250,0.00,359.00,VWS V14.01,2013-01-25 17:35:00,
2013-01-25 10:40:00,44.3,26.9,30.15,SE,144,2.0,9.0,50,0.00,,SCT250,0.00,390.00,VWS V14.01,2013-01-25 17:40:00,
2013-01-25 10:45:00,44.5,26.0,30.14,SSE,153,7.0,10.0,48,0.00,,SCT250,0.00,424.00,VWS V14.01,2013-01-25 17:45:00,
2013-01-25 10:50:00,44.9,26.4,30.13,SSE,159,6.0,10.0,48,0.00,,SCT250,0.00,330.00,VWS V14.01,2013-01-25 17:50:00,
2013-01-25 10:55:00,44.8,26.3,30.13,SSE,166,5.0,11.0,48,0.00,,SCT250,0.00,357.00,VWS V14.01,2013-01-25 17:55:00,
2013-01-25 11:00:00,45.1,25.6,30.13,SSE,165,5.0,11.0,46,0.00,,SCT250,0.00,359.00,VWS V14.01,2013-01-25 18:00:00,
2013-01-25 11:05:00,45.1,26.1,30.13,SSE,151,5.0,12.0,47,0.00,,BKN250,0.00,385.00,VWS V14.01,2013-01-25 18:05:00,
2013-01-25 11:10:00,45.4,26.4,30.13,SSE,158,6.0,12.0,47,0.00,,BKN250,0.00,387.00,VWS V14.01,2013-01-25 18:10:00,
2013-01-25 11:15:00,45.8,26.2,30.12,SSE,151,7.0,12.0,46,0.00,,BKN250,0.00,345.00,VWS V14.01,2013-01-25 18:15:00,
2013-01-25 11:20:00,45.6,26.0,30.12,SSE,150,3.0,12.0,46,0.00,,BKN250,0.00,287.00,VWS V14.01,2013-01-25 18:20:00,
2013-01-25 11:25:00,45.4,25.9,30.12,ESE,118,5.0,12.0,46,0.00,,BKN250,0.00,292.00,VWS V14.01,2013-01-25 18:25:00,
2013-01-25 11:30:00,45.6,26.0,30.12,SE,141,4.0,12.0,46,0.00,,BKN250,0.00,327.00,VWS V14.01,2013-01-25 18:30:00,
2013-01-25 11:35:00,45.6,26.0,30.12,SSE,163,5.0,9.0,46,0.00,,BKN250,0.00,353.00,VWS V14.01,2013-01-25 18:35:00,
2013-01-25 11:40:00,45.4,25.9,30.12,South,190,4.0,10.0,46,0.00,,BKN250,0.00,417.00,VWS V14.01,2013-01-25 18:40:00,
2013-01-25 11:45:00,45.6,25.5,30.11,South,171,9.0,10.0,45,0.00,,BKN250,0.00,334.00,VWS V14.01,2013-01-25 18:45:00,
2013-01-25 11:50:00,45.8,26.2,30.11,South,178,9.0,10.0,46,0.00,,BKN250,0.00,401.00,VWS V14.01,2013-01-25 18:50:00,
2013-01-25 11:55:00,45.6,26.0,30.11,South,184,6.0,13.0,46,0.00,,BKN250,0.00,473.00,VWS V14.01,2013-01-25 18:55:00,
2013-01-25 12:00:00,45.6,25.5,30.11,SSE,153,6.0,13.0,45,0.00,,BKN250,0.00,406.00,VWS V14.01,2013-01-25 19:00:00,
2013-01-25 12:05:00,45.7,25.0,30.11,SE,134,5.0,11.0,44,0.00,,SCT250,0.00,327.00,VWS V14.01,2013-01-25 19:05:00,
2013-01-25 12:10:00,45.6,25.5,30.11,SSE,168,9.0,14.0,45,0.00,,SCT250,0.00,355.00,VWS V14.01,2013-01-25 19:10:00,
2013-01-25 12:15:00,45.6,25.5,30.11,South,187,7.0,14.0,45,0.00,,SCT250,0.00,292.00,VWS V14.01,2013-01-25 19:15:00,
2013-01-25 12:20:00,45.7,25.6,30.10,SSE,165,9.0,14.0,45,0.00,,SCT250,0.00,316.00,VWS V14.01,2013-01-25 19:20:00,
2013-01-25 12:25:00,45.9,26.3,30.10,SSE,161,8.0,14.0,46,0.00,,SCT250,0.00,457.00,VWS V14.01,2013-01-25 19:25:00,
2013-01-25 12:30:00,46.4,25.7,30.09,SE,137,12.0,14.0,44,0.00,,SCT250,0.00,504.00,VWS V14.01,2013-01-25 19:30:00,
2013-01-25 12:35:00,47.0,26.2,30.09,South,179,9.0,13.0,44,0.00,,SCT250,0.00,438.00,VWS V14.01,2013-01-25 19:35:00,
2013-01-25 12:40:00,47.2,25.9,30.08,SSE,153,10.0,13.0,43,0.00,,SCT250,0.00,452.00,VWS V14.01,2013-01-25 19:40:00,
2013-01-25 12:45:00,47.5,26.7,30.09,South,175,7.0,13.0,44,0.00,,SCT250,0.00,455.00,VWS V14.01,2013-01-25 19:45:00,
2013-01-25 12:50:00,47.7,26.9,30.09,South,175,11.0,13.0,44,0.00,,SCT250,0.00,443.00,VWS V14.01,2013-01-25 19:50:00,
2013-01-25 12:55:00,48.0,27.1,30.08,South,180,10.0,13.0,44,0.00,,SCT250,0.00,439.00,VWS V14.01,2013-01-25 19:55:00,
2013-01-25 13:00:00,48.5,28.1,30.08,SSE,165,4.0,13.0,45,0.00,,SCT250,0.00,432.00,VWS V14.01,2013-01-25 20:00:00,
2013-01-25 13:05:00,48.7,27.8,30.08,South,172,5.0,11.0,44,0.00,,BKN250,0.00,424.00,VWS V14.01,2013-01-25 20:05:00,
2013-01-25 13:10:00,48.9,28.0,30.08,SE,146,5.0,11.0,44,0.00,,BKN250,0.00,415.00,VWS V14.01,2013-01-25 20:10:00,
2013-01-25 13:15:00,49.0,28.0,30.08,SSW,199,4.0,11.0,44,0.00,,BKN250,0.00,408.00,VWS V14.01,2013-01-25 20:15:00,
2013-01-25 13:20:00,49.7,28.1,30.07,SSW,205,4.0,11.0,43,0.00,,BKN250,0.00,401.00,VWS V14.01,2013-01-25 20:20:00,
2013-01-25 13:25:00,49.8,27.6,30.07,SSW,196,6.0,11.0,42,0.00,,BKN250,0.00,394.00,VWS V14.01,2013-01-25 20:25:00,
2013-01-25 13:30:00,50.1,27.9,30.07,SSE,161,4.0,11.0,42,0.00,,BKN250,0.00,387.00,VWS V14.01,2013-01-25 20:30:00,
2013-01-25 13:36:00,49.7,27.6,30.07,SSE,151,1.0,7.0,42,0.00,,BKN250,0.00,381.00,VWS V14.01,2013-01-25 20:36:00,
2013-01-25 13:41:00,50.0,27.2,30.07,SSW,198,4.0,7.0,41,0.00,,BKN250,0.00,339.00,VWS V14.01,2013-01-25 20:41:00,
2013-01-25 13:46:00,49.8,27.1,30.07,SSW,207,4.0,7.0,41,0.00,,BKN250,0.00,341.00,VWS V14.01,2013-01-25 20:46:00,
2013-01-25 13:51:00,49.9,27.1,30.07,SSE,161,3.0,7.0,41,0.00,,BKN250,0.00,345.00,VWS V14.01,2013-01-25 20:51:00,
2013-01-25 13:56:00,49.8,27.1,30.07,SSE,161,5.0,7.0,41,0.00,,BKN250,0.00,313.00,VWS V14.01,2013-01-25 20:56:00,
2013-01-25 14:00:00,49.8,27.1,30.06,SE,140,4.0,7.0,41,0.00,,OVC075,0.00,316.00,VWS V14.01,2013-01-25 21:00:00,
2013-01-25 14:01:00,49.7,27.0,30.07,SSE,159,3.0,3.0,41,0.00,,BKN250,0.00,295.00,VWS V14.01,2013-01-25 21:01:00,
2013-01-25 14:06:00,49.4,27.3,30.07,SSE,160,3.0,7.0,42,0.00,,BKN250,0.00,137.00,VWS V14.01,2013-01-25 21:06:00,
2013-01-25 14:11:00,49.2,27.7,30.07,SSE,153,3.0,7.0,43,0.00,,BKN250,0.00,176.00,VWS V14.01,2013-01-25 21:11:00,
2013-01-25 14:16:00,48.7,27.2,30.07,South,175,5.0,9.0,43,0.00,,BKN250,0.00,149.00,VWS V14.01,2013-01-25 21:16:00,
2013-01-25 14:21:00,48.4,27.5,30.07,South,180,5.0,10.0,44,0.00,,BKN250,0.00,155.00,VWS V14.01,2013-01-25 21:21:00,
2013-01-25 14:26:00,48.3,27.4,30.08,South,186,5.0,11.0,44,0.00,,BKN250,0.00,262.00,VWS V14.01,2013-01-25 21:26:00,
2013-01-25 14:30:00,48.2,27.3,30.08,SSE,163,10.0,11.0,44,0.00,,OVC075,0.00,218.00,VWS V14.01,2013-01-25 21:30:00,
2013-01-25 14:31:00,48.0,27.1,30.08,SSW,195,5.0,10.0,44,0.00,,BKN250,0.00,183.00,VWS V14.01,2013-01-25 21:31:00,
2013-01-25 14:36:00,47.9,27.6,30.08,South,190,5.0,11.0,45,0.00,,BKN250,0.00,200.00,VWS V14.01,2013-01-25 21:36:00,
2013-01-25 14:41:00,47.6,27.3,30.08,SSE,165,3.0,11.0,45,0.00,,BKN250,0.00,165.00,VWS V14.01,2013-01-25 21:41:00,
2013-01-25 14:46:00,47.5,27.8,30.08,SSE,158,5.0,11.0,46,0.00,,BKN250,0.00,153.00,VWS V14.01,2013-01-25 21:46:00,
2013-01-25 14:51:00,47.4,27.7,30.08,South,184,5.0,11.0,46,0.00,,BKN250,0.00,197.00,VWS V14.01,2013-01-25 21:51:00,
2013-01-25 14:56:00,47.6,27.9,30.08,SSE,168,4.0,11.0,46,0.00,,BKN250,0.00,218.00,VWS V14.01,2013-01-25 21:56:00,
2013-01-25 15:00:00,47.8,28.0,30.08,South,184,5.0,11.0,46,0.00,,OVC075,0.00,223.00,VWS V14.01,2013-01-25 22:00:00,
2013-01-25 15:01:00,47.9,28.1,30.08,SSE,155,2.0,5.0,46,0.00,,BKN250,0.00,234.00,VWS V14.01,2013-01-25 22:01:00,
2013-01-25 15:06:00,47.9,28.1,30.08,SSE,157,2.0,6.0,46,0.00,,CLR,0.00,216.00,VWS V14.01,2013-01-25 22:06:00,
2013-01-25 15:11:00,48.1,27.8,30.08,South,172,3.0,6.0,45,0.00,,CLR,0.00,241.00,VWS V14.01,2013-01-25 22:11:00,
2013-01-25 15:16:00,48.3,28.0,30.08,SSW,192,7.0,7.0,45,0.00,,CLR,0.00,179.00,VWS V14.01,2013-01-25 22:16:00,
2013-01-25 15:21:00,48.3,28.0,30.08,SSE,167,4.0,7.0,45,0.00,,CLR,0.00,178.00,VWS V14.01,2013-01-25 22:21:00,
2013-01-25 15:26:00,48.2,27.3,30.08,SE,130,5.0,7.0,44,0.00,,CLR,0.00,155.00,VWS V14.01,2013-01-25 22:26:00,
2013-01-25 15:30:00,48.3,27.4,30.08,SSE,157,2.0,7.0,44,0.00,,OVC075,0.00,142.00,VWS V14.01,2013-01-25 22:30:00,
2013-01-25 15:31:00,48.2,27.3,30.08,South,183,3.0,5.0,44,0.00,,CLR,0.00,144.00,VWS V14.01,2013-01-25 22:31:00,
2013-01-25 15:36:00,48.2,27.3,30.09,SSE,159,4.0,7.0,44,0.00,,CLR,0.00,135.00,VWS V14.01,2013-01-25 22:36:00,
2013-01-25 15:41:00,48.1,27.8,30.08,South,184,4.0,7.0,45,0.00,,CLR,0.00,132.00,VWS V14.01,2013-01-25 22:41:00,
2013-01-25 15:46:00,48.1,27.8,30.08,South,175,4.0,7.0,45,0.00,,CLR,0.00,113.00,VWS V14.01,2013-01-25 22:46:00,
2013-01-25 15:51:00,48.0,27.7,30.09,SSE,153,2.0,7.0,45,0.00,,CLR,0.00,120.00,VWS V14.01,2013-01-25 22:51:00,
2013-01-25 15:56:00,47.9,27.6,30.09,South,172,5.0,7.0,45,0.00,,CLR,0.00,100.00,VWS V14.01,2013-01-25 22:56:00,
2013-01-25 16:00:00,47.8,28.0,30.09,SSE,155,3.0,7.0,46,0.00,,OVC075,0.00,111.00,VWS V14.01,2013-01-25 23:00:00,
2013-01-25 16:01:00,47.8,28.0,30.09,SSE,161,3.0,4.0,46,0.00,,CLR,0.00,104.00,VWS V14.01,2013-01-25 23:01:00,
2013-01-25 16:06:00,47.6,27.9,30.09,SE,128,3.0,5.0,46,0.00,,CLR,0.00,84.00,VWS V14.01,2013-01-25 23:06:00,
2013-01-25 16:11:00,47.0,27.8,30.10,ESE,121,2.0,5.0,47,0.00,,CLR,0.00,72.00,VWS V14.01,2013-01-25 23:11:00,
2013-01-25 16:16:00,46.4,28.3,30.10,ESE,119,4.0,6.0,49,0.00,,CLR,0.00,62.00,VWS V14.01,2013-01-25 23:16:00,
2013-01-25 16:21:00,45.4,28.4,30.10,SSE,168,3.0,6.0,51,0.00,,CLR,0.00,49.00,VWS V14.01,2013-01-25 23:21:00,
2013-01-25 16:27:00,44.9,28.4,30.10,SE,140,5.0,10.0,52,0.00,,CLR,0.00,39.00,VWS V14.01,2013-01-25 23:27:00,
2013-01-25 16:30:00,44.6,28.5,30.10,SSE,163,3.0,10.0,53,0.00,,OVC075,0.00,32.00,VWS V14.01,2013-01-25 23:30:00,
2013-01-25 16:32:00,44.5,28.5,30.10,SSE,148,3.0,5.0,53,0.00,,CLR,0.00,30.00,VWS V14.01,2013-01-25 23:32:00,
2013-01-25 16:37:00,43.9,28.4,30.10,East,93,2.0,9.0,54,0.00,,CLR,0.00,23.00,VWS V14.01,2013-01-25 23:37:00,
2013-01-25 16:42:00,43.4,28.3,30.10,South,184,4.0,9.0,55,0.00,,CLR,0.00,18.00,VWS V14.01,2013-01-25 23:42:00,
2013-01-25 16:47:00,42.9,28.3,30.11,ESE,118,1.0,9.0,56,0.00,,CLR,0.00,12.00,VWS V14.01,2013-01-25 23:47:00,
2013-01-25 16:52:00,42.4,27.8,30.11,SE,144,0.0,9.0,56,0.00,,CLR,0.00,9.00,VWS V14.01,2013-01-25 23:52:00,
2013-01-25 16:57:00,41.5,27.4,30.11,ENE,59,0.0,9.0,57,0.00,,CLR,0.00,7.00,VWS V14.01,2013-01-25 23:57:00,
2013-01-25 17:00:00,40.5,27.3,30.12,ENE,62,2.0,9.0,59,0.00,,OVC075,0.00,5.00,VWS V14.01,2013-01-26 00:00:00,
2013-01-25 17:02:00,40.4,27.2,30.11,ENE,63,1.0,2.0,59,0.00,,CLR,0.00,5.00,VWS V14.01,2013-01-26 00:02:00,
2013-01-25 17:07:00,40.8,28.0,30.10,ENE,75,1.0,2.0,60,0.00,,CLR,0.00,0.00,VWS V14.01,2013-01-26 00:07:00,
2013-01-25 17:12:00,41.3,28.1,30.10,ESE,116,0.0,4.0,59,0.00,,CLR,0.00,0.00,VWS V14.01,2013-01-26 00:12:00,
2013-01-25 17:17:00,41.4,28.2,30.10,ESE,117,1.0,4.0,59,0.00,,CLR,0.00,0.00,VWS V14.01,2013-01-26 00:17:00,
2013-01-25 17:22:00,40.5,26.9,30.11,NE,46,1.0,4.0,58,0.00,,CLR,0.00,0.00,VWS V14.01,2013-01-26 00:22:00,
2013-01-25 17:27:00,39.9,27.6,30.11,NE,46,0.0,4.0,61,0.00,,CLR,0.00,0.00,VWS V14.01,2013-01-26 00:27:00,
2013-01-25 17:30:00,39.9,27.6,30.11,NE,46,2.0,4.0,61,0.00,,OVC075,0.00,0.00,VWS V14.01,2013-01-26 00:30:00,
2013-01-25 17:32:00,40.0,27.6,30.11,NE,46,1.0,2.0,61,0.00,,CLR,0.00,0.00,VWS V14.01,2013-01-26 00:32:00,
2013-01-25 17:37:00,40.1,28.1,30.12,SW,214,3.0,9.0,62,0.00,,CLR,0.00,0.00,VWS V14.01,2013-01-26 00:37:00,
2013-01-25 17:42:00,40.7,28.3,30.11,East,80,0.0,9.0,61,0.00,,CLR,0.00,0.00,VWS V14.01,2013-01-26 00:42:00,
2013-01-25 17:47:00,40.4,28.0,30.11,West,269,0.0,9.0,61,0.00,,CLR,0.00,0.00,VWS V14.01,2013-01-26 00:47:00,
2013-01-25 17:52:00,40.1,27.8,30.12,NW,313,0.0,9.0,61,0.00,,CLR,0.00,0.00,VWS V14.01,2013-01-26 00:52:00,
2013-01-25 17:57:00,39.3,27.4,30.12,NW,313,1.0,9.0,62,0.00,,CLR,0.00,0.00,VWS V14.01,2013-01-26 00:57:00,
2013-01-25 18:00:00,38.6,27.1,30.12,WNW,292,1.0,9.0,63,0.00,,OVC075,0.00,0.00,VWS V14.01,2013-01-26 01:00:00,
2013-01-25 18:02:00,38.5,27.0,30.12,WNW,292,0.0,2.0,63,0.00,,CLR,0.00,0.00,VWS V14.01,2013-01-26 01:02:00,
2013-01-25 18:07:00,38.0,27.3,30.12,South,187,5.0,5.0,65,0.00,,CLR,0.00,0.00,VWS V14.01,2013-01-26 01:07:00,
2013-01-25 18:12:00,38.5,27.8,30.12,South,183,1.0,5.0,65,0.00,,CLR,0.00,0.00,VWS V14.01,2013-01-26 01:12:00,
2013-01-25 18:17:00,38.4,27.3,30.12,South,185,1.0,5.0,64,0.00,,CLR,0.00,0.00,VWS V14.01,2013-01-26 01:17:00,
2013-01-25 18:22:00,38.0,27.3,30.12,ESE,120,0.0,5.0,65,0.00,,CLR,0.00,0.00,VWS V14.01,2013-01-26 01:22:00,
2013-01-25 18:27:00,37.5,26.8,30.12,ESE,111,0.0,5.0,65,0.00,,CLR,0.00,0.00,VWS V14.01,2013-01-26 01:27:00,
2013-01-25 18:30:00,37.2,26.9,30.13,WSW,258,1.0,5.0,66,0.00,,OVC075,0.00,0.00,VWS V14.01,2013-01-26 01:30:00,
2013-01-25 18:32:00,37.2,27.3,30.13,WSW,258,1.0,1.0,67,0.00,,CLR,0.00,0.00,VWS V14.01,2013-01-26 01:32:00,
2013-01-25 18:37:00,37.3,27.4,30.13,WSW,258,0.0,1.0,67,0.00,,CLR,0.00,0.00,VWS V14.01,2013-01-26 01:37:00,
2013-01-25 18:42:00,37.4,27.5,30.14,WSW,258,1.0,1.0,67,0.00,,CLR,0.00,0.00,VWS V14.01,2013-01-26 01:42:00,
2013-01-25 18:47:00,37.2,26.9,30.14,South,187,1.0,2.0,66,0.00,,CLR,0.00,0.00,VWS V14.01,2013-01-26 01:47:00,
2013-01-25 18:52:00,37.5,27.2,30.13,SE,138,0.0,3.0,66,0.00,,CLR,0.00,0.00,VWS V14.01,2013-01-26 01:52:00,
2013-01-25 18:57:00,37.3,27.0,30.13,SW,216,4.0,4.0,66,0.00,,CLR,0.00,0.00,VWS V14.01,2013-01-26 01:57:00,
2013-01-25 19:00:00,36.7,26.8,30.13,South,181,3.0,4.0,67,0.00,,OVC075,0.00,0.00,VWS V14.01,2013-01-26 02:00:00,
2013-01-25 19:02:00,36.5,26.6,30.13,South,173,1.0,3.0,67,0.00,,CLR,0.00,0.00,VWS V14.01,2013-01-26 02:02:00,
2013-01-25 19:07:00,36.0,26.8,30.13,ESE,115,2.0,3.0,69,0.00,,CLR,0.00,0.00,VWS V14.01,2013-01-26 02:07:00,
2013-01-25 19:12:00,37.1,27.9,30.12,ESE,122,6.0,7.0,69,0.00,,CLR,0.00,0.00,VWS V14.01,2013-01-26 02:12:00,
2013-01-25 19:17:00,37.7,27.8,30.12,SE,125,4.0,7.0,67,0.00,,CLR,0.00,0.00,VWS V14.01,2013-01-26 02:17:00,
2013-01-25 19:22:00,37.3,27.4,30.12,East,98,4.0,7.0,67,0.00,,CLR,0.00,0.00,VWS V14.01,2013-01-26 02:22:00,
2013-01-25 19:27:00,36.2,26.3,30.13,East,94,1.0,7.0,67,0.00,,CLR,0.00,0.00,VWS V14.01,2013-01-26 02:27:00,
2013-01-25 19:30:00,36.0,26.8,30.13,ESE,121,1.0,7.0,69,0.00,,OVC075,0.00,0.00,VWS V14.01,2013-01-26 02:30:00,
2013-01-25 19:32:00,36.2,27.0,30.13,ESE,111,1.0,1.0,69,0.00,,CLR,0.00,0.00,VWS V14.01,2013-01-26 02:32:00,
2013-01-25 19:37:00,36.8,27.6,30.12,SSE,156,2.0,4.0,69,0.00,,CLR,0.00,0.00,VWS V14.01,2013-01-26 02:37:00,
2013-01-25 19:42:00,36.2,27.0,30.13,South,183,1.0,4.0,69,0.00,,CLR,0.00,0.00,VWS V14.01,2013-01-26 02:42:00,
2013-01-25 19:47:00,36.3,27.5,30.13,SSE,161,0.0,4.0,70,0.00,,CLR,0.00,0.00,VWS V14.01,2013-01-26 02:47:00,
2013-01-25 19:52:00,35.3,26.5,30.13,SSE,165,2.0,4.0,70,0.00,,CLR,0.00,0.00,VWS V14.01,2013-01-26 02:52:00,
2013-01-25 19:57:00,35.0,26.6,30.13,South,178,0.0,4.0,71,0.00,,CLR,0.00,0.00,VWS V14.01,2013-01-26 02:57:00,
2013-01-25 20:00:00,34.8,26.7,30.13,South,178,0.0,4.0,72,0.00,,OVC075,0.00,0.00,VWS V14.01,2013-01-26 03:00:00,
2013-01-25 20:02:00,34.7,26.6,30.11,South,187,3.0,3.0,72,0.00,,BKN160,0.00,0.00,VWS V14.01,2013-01-26 03:02:00,
2013-01-25 20:07:00,35.0,27.2,30.10,SSE,149,3.0,4.0,73,0.00,,BKN160,0.00,0.00,VWS V14.01,2013-01-26 03:07:00,
2013-01-25 20:12:00,35.0,27.2,30.10,SSE,149,0.0,4.0,73,0.00,,BKN160,0.00,0.00,VWS V14.01,2013-01-26 03:12:00,
2013-01-25 20:17:00,35.0,27.2,30.10,NNW,337,3.0,4.0,73,0.00,,BKN160,0.00,0.00,VWS V14.01,2013-01-26 03:17:00,
2013-01-25 20:22:00,35.1,27.3,30.10,WNW,292,2.0,4.0,73,0.00,,BKN160,0.00,0.00,VWS V14.01,2013-01-26 03:22:00,
2013-01-25 20:27:00,35.0,27.2,30.09,ENE,67,1.0,4.0,73,0.00,,BKN160,0.00,0.00,VWS V14.01,2013-01-26 03:27:00,
2013-01-25 20:30:00,35.0,27.2,30.09,North,10,1.0,4.0,73,0.00,,OVC075,0.00,0.00,VWS V14.01,2013-01-26 03:30:00,
2013-01-25 20:32:00,35.1,27.3,30.09,NNE,13,0.0,2.0,73,0.00,,BKN160,0.00,0.00,VWS V14.01,2013-01-26 03:32:00,
2013-01-25 20:37:00,35.0,27.2,30.09,NNE,32,2.0,3.0,73,0.00,,BKN160,0.00,0.00,VWS V14.01,2013-01-26 03:37:00,
2013-01-25 20:42:00,34.9,27.5,30.09,ENE,61,0.0,4.0,74,0.00,,BKN160,0.00,0.00,VWS V14.01,2013-01-26 03:42:00,
2013-01-25 20:47:00,34.7,27.3,30.09,ENE,57,0.0,4.0,74,0.00,,BKN160,0.00,0.00,VWS V14.01,2013-01-26 03:47:00,
2013-01-25 20:52:00,34.9,27.8,30.09,ESE,105,4.0,6.0,75,0.00,,BKN160,0.00,0.00,VWS V14.01,2013-01-26 03:52:00,
2013-01-25 20:57:00,35.5,28.0,30.08,West,259,6.0,7.0,74,0.00,,BKN160,0.00,0.00,VWS V14.01,2013-01-26 03:57:00,
2013-01-25 21:00:00,35.0,26.9,30.09,SW,216,2.0,7.0,72,0.00,,OVC075,0.00,0.00,VWS V14.01,2013-01-26 04:00:00,
2013-01-25 21:02:00,34.7,27.0,30.05,SSW,195,0.0,4.0,73,0.00,,OVC160,0.00,0.00,VWS V14.01,2013-01-26 04:02:00,
2013-01-25 21:07:00,33.9,26.2,30.05,SSW,204,1.0,4.0,73,0.00,,OVC160,0.00,0.00,VWS V14.01,2013-01-26 04:07:00,
2013-01-25 21:12:00,33.6,26.5,30.05,SSW,209,5.0,7.0,75,0.00,,OVC160,0.00,0.00,VWS V14.01,2013-01-26 04:12:00,
2013-01-25 21:17:00,33.9,27.1,30.05,SSW,206,7.0,14.0,76,0.00,,OVC160,0.00,0.00,VWS V14.01,2013-01-26 04:17:00,
2013-01-25 21:22:00,33.8,26.7,30.05,SW,217,7.0,14.0,75,0.00,,OVC160,0.00,0.00,VWS V14.01,2013-01-26 04:22:00,
2013-01-25 21:27:00,33.3,26.6,30.05,SW,215,3.0,14.0,76,0.00,,OVC160,0.00,0.00,VWS V14.01,2013-01-26 04:27:00,
2013-01-25 21:30:00,33.2,26.5,30.05,WSW,246,4.0,14.0,76,0.00,,OVC075,0.00,0.00,VWS V14.01,2013-01-26 04:30:00,
2013-01-25 21:32:00,33.2,26.5,30.05,West,261,3.0,7.0,76,0.00,,OVC160,0.00,0.00,VWS V14.01,2013-01-26 04:32:00,
2013-01-25 21:37:00,32.7,26.3,30.05,WSW,257,4.0,7.0,77,0.00,,OVC160,0.00,0.00,VWS V14.01,2013-01-26 04:37:00,
2013-01-25 21:42:00,32.2,25.8,30.05,SW,232,3.0,7.0,77,0.00,,OVC160,0.00,0.00,VWS V14.01,2013-01-26 04:42:00,
2013-01-25 21:47:00,32.0,26.2,30.05,WSW,241,0.0,7.0,79,0.00,,OVC160,0.00,0.00,VWS V14.01,2013-01-26 04:47:00,
2013-01-25 21:52:00,32.3,26.5,30.05,WNW,287,0.0,7.0,79,0.00,,OVC160,0.00,0.00,VWS V14.01,2013-01-26 04:52:00,
2013-01-25 21:57:00,32.7,26.9,30.04,North,355,4.0,7.0,79,0.00,,OVC160,0.00,0.00,VWS V14.01,2013-01-26 04:57:00,
2013-01-25 22:00:00,32.9,27.1,30.04,NNW,336,1.0,7.0,79,0.00,,OVC160,0.00,0.00,VWS V14.01,2013-01-26 05:00:00,
2013-01-25 22:01:00,32.9,27.1,30.03,NNW,344,5.0,5.0,79,0.00,,OVC160,0.00,0.00,VWS V14.01,2013-01-26 05:01:00,
2013-01-25 22:06:00,33.1,27.3,30.03,NW,310,3.0,5.0,79,0.00,,CLR,0.00,0.00,VWS V14.01,2013-01-26 05:06:00,
2013-01-25 22:11:00,33.6,27.5,30.03,WNW,293,5.0,5.0,78,0.00,,CLR,0.00,0.00,VWS V14.01,2013-01-26 05:11:00,
2013-01-25 22:16:00,33.6,27.2,30.02,West,279,0.0,6.0,77,0.00,,CLR,0.00,0.00,VWS V14.01,2013-01-26 05:16:00,
2013-01-25 22:21:00,33.3,26.9,30.03,WNW,301,1.0,6.0,77,0.00,,CLR,0.00,0.00,VWS V14.01,2013-01-26 05:21:00,
2013-01-25 22:26:00,32.7,26.3,30.02,SW,214,5.0,6.0,77,0.00,,CLR,0.00,0.00,VWS V14.01,2013-01-26 05:26:00,
2013-01-25 22:30:00,32.2,26.1,30.03,SW,215,0.0,6.0,78,0.00,,OVC075,0.00,0.00,VWS V14.01,2013-01-26 05:30:00,
2013-01-25 22:31:00,32.2,26.1,30.03,SW,215,0.0,0.0,78,0.00,,CLR,0.00,0.00,VWS V14.01,2013-01-26 05:31:00,
2013-01-25 22:36:00,32.6,26.8,30.02,South,178,3.0,6.0,79,0.00,,CLR,0.00,0.00,VWS V14.01,2013-01-26 05:36:00,
2013-01-25 22:41:00,33.5,27.4,30.01,SSW,197,4.0,13.0,78,0.00,,CLR,0.00,0.00,VWS V14.01,2013-01-26 05:41:00,
2013-01-25 22:46:00,34.2,27.8,30.01,SSE,163,1.0,13.0,77,0.00,,CLR,0.00,0.00,VWS V14.01,2013-01-26 05:46:00,
2013-01-25 22:51:00,36.2,28.7,30.00,South,173,3.0,13.0,74,0.00,,CLR,0.00,0.00,VWS V14.01,2013-01-26 05:51:00,
2013-01-25 22:56:00,37.6,28.7,30.00,SSE,161,5.0,13.0,70,0.00,,CLR,0.00,0.00,VWS V14.01,2013-01-26 05:56:00,
2013-01-25 23:00:00,38.5,28.1,29.99,SSE,159,6.0,13.0,66,0.00,,OVC075,0.00,0.00,VWS V14.01,2013-01-26 06:00:00,
2013-01-25 23:01:00,38.5,28.1,29.99,SSW,192,10.0,10.0,66,0.00,,CLR,0.00,0.00,VWS V14.01,2013-01-26 06:01:00,
2013-01-25 23:06:00,38.1,27.8,29.99,East,82,2.0,10.0,66,0.00,,CLR,0.00,0.00,VWS V14.01,2013-01-26 06:06:00,
2013-01-25 23:11:00,36.8,26.9,30.00,WNW,288,4.0,10.0,67,0.00,,CLR,0.00,0.00,VWS V14.01,2013-01-26 06:11:00,
2013-01-25 23:16:00,35.3,26.5,30.00,West,267,3.0,10.0,70,0.00,,CLR,0.00,0.00,VWS V14.01,2013-01-26 06:16:00,
2013-01-25 23:21:00,34.9,26.5,30.00,SW,234,3.0,10.0,71,0.00,,CLR,0.00,0.00,VWS V14.01,2013-01-26 06:21:00,
2013-01-25 23:26:00,34.9,26.5,30.00,WSW,248,1.0,10.0,71,0.00,,CLR,0.00,0.00,VWS V14.01,2013-01-26 06:26:00,
2013-01-25 23:30:00,35.5,27.0,29.99,WSW,237,3.0,10.0,71,0.00,,OVC075,0.00,0.00,VWS V14.01,2013-01-26 06:30:00,
2013-01-25 23:31:00,35.5,27.0,29.99,SW,225,3.0,4.0,71,0.00,,CLR,0.00,0.00,VWS V14.01,2013-01-26 06:31:00,
2013-01-25 23:36:00,35.3,26.5,29.99,SW,217,1.0,4.0,70,0.00,,CLR,0.00,0.00,VWS V14.01,2013-01-26 06:36:00,
2013-01-25 23:41:00,35.1,26.7,29.99,WSW,237,2.0,4.0,71,0.00,,CLR,0.00,0.00,VWS V14.01,2013-01-26 06:41:00,
2013-01-25 23:46:00,35.0,26.6,29.99,NW,308,0.0,4.0,71,0.00,,CLR,0.00,0.00,VWS V14.01,2013-01-26 06:46:00,
2013-01-25 23:51:00,35.0,26.6,29.99,West,275,4.0,4.0,71,0.00,,CLR,0.00,0.00,VWS V14.01,2013-01-26 06:51:00,
2013-01-25 23:56:00,34.7,26.6,29.99,WSW,250,0.0,5.0,72,0.00,,CLR,0.00,0.00,VWS V14.01,2013-01-26 06:56:00,